Hlavní strana
METAR-TAF:

METAR-TAF

Letiště :

Moundou, Čad

zeměpisná šířka: 08-37N, zeměpisná délka: 016-04E, výška: 428 m

Aktuální stav počasí

Zpráva byla vytvořena před 10 hodinami a 2 minutami, v 15:00 UTC
Severní vítr 6 kt
Teplota 34°C
Vlhkost vzduchu 36%
Tlak 1010 hPa
Viditelnost 10 km a více
Žádná oblačnost pod 1500 m, nevyskytují se cumulonimby.

METAR: FTTD 121500Z 36006KT CAVOK 34/17 Q1010

Čas: 02:02 (01:02 UTC)


TAF: chybějící

Stav a předpovědi počasí z více než 4 000 letišť (zprávy METAR a TAF).

Červené a žluté tečky na mapě představují dostupné meteorologické stanice.

Když kurzor umístíte na tečku, zobrazí se název stanice.

Pak kliknutím zobrazíte stav a předpověď počasí.

Chcete-li změnit mapu, kliknutím na zelené tlačítko se znaménkem +mapu přiblížíte, kliknutím na zelené tlačítko se znaménkem – mapu oddálíte a kliknutím na zelené šipky přejdete na sousední mapy.


METAR-TAF: